Time;durP1;ratioP1;P1;durP2;ratioP2;P2;SDS_P1;SDS_P2;PMS_P1;PMS_P2;Temp;Humidity;BMP_temperature;BMP_pressure;BME280_temperature;BME280_humidity;BME280_pressure;Samples;Min_cycle;Max_cycle;Signal;HPM_P1;HPM_P2
2023/02/28 00:01:29;;;;;;;9.43;6.40;;;;;;;1.70;84.53;102999.91;5184924;28;20399;-72
2023/02/28 00:04:00;;;;;;;10.75;5.95;;;;;;;1.72;84.58;102984.34;5166904;28;20022;-72
2023/02/28 00:06:32;;;;;;;7.95;6.15;;;;;;;1.75;83.87;102986.91;5183923;28;20039;-72
2023/02/28 00:09:03;;;;;;;9.07;6.03;;;;;;;1.70;83.40;102989.56;5183596;28;20080;-72
2023/02/28 00:11:34;;;;;;;7.72;6.40;;;;;;;1.68;83.75;102988.72;5184177;28;20041;-72
2023/02/28 00:14:06;;;;;;;10.45;5.97;;;;;;;1.67;84.54;102989.59;5184115;28;20043;-72
2023/02/28 00:16:37;;;;;;;8.98;6.07;;;;;;;1.68;83.87;102998.19;5185933;28;20026;-71
2023/02/28 00:19:09;;;;;;;9.48;5.75;;;;;;;1.60;83.92;102990.53;5185545;28;20037;-72
2023/02/28 00:21:40;;;;;;;8.88;5.78;;;;;;;1.58;84.87;102991.44;5173507;28;20042;-72
2023/02/28 00:24:11;;;;;;;6.97;5.35;;;;;;;1.62;85.04;102987.94;5169822;28;21027;-72
2023/02/28 00:26:43;;;;;;;11.02;5.88;;;;;;;1.60;84.60;102987.97;5186402;28;20086;-71
2023/02/28 00:29:14;;;;;;;9.20;5.40;;;;;;;1.57;84.95;102997.47;5169753;28;20376;-71
2023/02/28 00:31:45;;;;;;;10.43;5.90;;;;;;;1.55;84.51;102984.56;5186268;28;20117;-71
2023/02/28 00:34:17;;;;;;;10.65;5.28;;;;;;;1.57;84.48;102987.13;5187318;28;20042;-72
2023/02/28 00:36:50;;;;;;;7.07;5.88;;;;;;;1.53;83.85;102985.47;5185711;28;20030;-72
2023/02/28 00:39:22;;;;;;;8.70;5.38;;;;;;;1.50;84.86;102983.78;5187328;28;20507;-72
2023/02/28 00:41:53;;;;;;;7.45;5.25;;;;;;;1.53;84.21;102991.50;5184168;28;20042;-72
2023/02/28 00:44:24;;;;;;;7.05;4.97;;;;;;;1.54;84.58;102993.19;5186447;28;20026;-72
2023/02/28 00:46:56;;;;;;;6.70;4.97;;;;;;;1.53;84.31;102988.91;5243796;22;20413;-72
2023/02/28 00:49:28;;;;;;;7.50;5.22;;;;;;;1.46;84.83;102974.34;5243089;28;20503;-72
2023/02/28 00:51:59;;;;;;;10.57;5.40;;;;;;;1.44;86.22;102982.13;5249892;28;20168;-72
2023/02/28 00:54:30;;;;;;;7.75;5.40;;;;;;;1.45;86.54;102980.41;5248809;28;20029;-71
2023/02/28 00:57:02;;;;;;;11.00;5.63;;;;;;;1.54;85.37;102984.59;5246616;28;20037;-70
2023/02/28 00:59:33;;;;;;;8.23;5.05;;;;;;;1.52;85.52;102987.22;5244604;28;20116;-72
2023/02/28 01:02:04;;;;;;;8.32;5.13;;;;;;;1.52;85.38;102979.47;5246262;28;20029;-71
2023/02/28 01:04:35;;;;;;;6.90;4.60;;;;;;;1.54;85.37;102990.59;5230562;28;20060;-70
2023/02/28 01:07:07;;;;;;;9.93;5.25;;;;;;;1.50;84.95;102991.53;5251462;28;20024;-70
2023/02/28 01:09:38;;;;;;;7.60;4.93;;;;;;;1.49;85.30;102995.00;5247995;28;20060;-71
2023/02/28 01:12:09;;;;;;;6.47;4.32;;;;;;;1.44;85.18;102992.47;5251561;28;20040;-72
2023/02/28 01:14:41;;;;;;;6.70;5.10;;;;;;;1.48;85.72;103002.75;5228999;28;20032;-70
2023/02/28 01:17:12;;;;;;;6.53;5.10;;;;;;;1.49;85.27;103001.88;5244437;28;20091;-70
2023/02/28 01:19:43;;;;;;;7.82;4.90;;;;;;;1.39;85.07;102993.38;5247891;28;20028;-70
2023/02/28 01:22:14;;;;;;;6.30;5.07;;;;;;;1.48;85.12;103008.78;5249256;28;20018;-70
2023/02/28 01:24:46;;;;;;;9.88;5.13;;;;;;;1.39;85.26;102993.38;5244382;28;20025;-72
2023/02/28 01:27:17;;;;;;;6.45;4.68;;;;;;;1.42;85.00;103003.69;5248616;28;20067;-71
2023/02/28 01:29:50;;;;;;;7.32;4.80;;;;;;;1.40;85.84;103001.13;5248751;28;20032;-71
2023/02/28 01:32:22;;;;;;;7.45;5.20;;;;;;;1.38;87.40;103007.19;5246447;28;20542;-72
2023/02/28 01:34:53;;;;;;;8.15;5.38;;;;;;;1.33;86.29;103006.38;5248050;28;20026;-71
2023/02/28 01:37:24;;;;;;;8.90;5.05;;;;;;;1.27;85.06;103004.72;5244739;28;20025;-71
2023/02/28 01:39:56;;;;;;;7.70;4.93;;;;;;;1.27;87.68;103002.13;5246525;28;20037;-71
2023/02/28 01:42:27;;;;;;;6.63;5.03;;;;;;;1.19;87.30;103007.38;5246469;28;20041;-71
2023/02/28 01:45:17;;;;;;;7.65;4.78;;;;;;;1.47;87.01;103009.63;5245987;28;20021;-72
2023/02/28 01:47:51;;;;;;;7.85;5.13;;;;;;;1.25;88.37;103003.00;5247640;28;20120;-71
2023/02/28 01:50:29;;;;;;;6.88;5.07;;;;;;;1.22;87.51;102993.59;5243690;28;20470;-71
2023/02/28 01:53:04;;;;;;;9.93;5.68;;;;;;;1.14;87.18;102990.25;5246965;28;20040;-71
2023/02/28 01:55:36;;;;;;;7.78;5.50;;;;;;;1.15;88.62;102991.94;5242326;28;20408;-71
2023/02/28 01:58:08;;;;;;;7.47;5.10;;;;;;;1.16;87.28;102988.47;5228236;28;20029;-71
2023/02/28 02:00:42;;;;;;;8.90;5.03;;;;;;;1.10;87.87;102980.78;5245680;28;20029;-71
2023/02/28 02:03:18;;;;;;;6.40;4.97;;;;;;;1.08;87.79;102979.97;5246231;28;20029;-71
2023/02/28 02:05:50;;;;;;;8.98;5.65;;;;;;;1.13;88.13;102981.63;5248165;28;20017;-71
2023/02/28 02:08:24;;;;;;;7.43;4.88;;;;;;;1.21;88.12;102977.25;5246173;28;20032;-71
2023/02/28 02:10:59;;;;;;;8.65;5.35;;;;;;;1.13;88.46;102978.19;5245808;28;20029;-71
2023/02/28 02:13:55;;;;;;;6.45;5.07;;;;;;;1.42;87.50;102964.94;5245870;28;20025;-70
2023/02/28 02:16:38;;;;;;;9.30;5.63;;;;;;;1.33;88.12;102967.66;5247441;28;20056;-71
2023/02/28 02:19:16;;;;;;;;;;;;;;;1.75;84.59;102973.97;5248161;28;20033;-70
2023/02/28 02:22:17;;;;;;;8.57;5.05;;;;;;;1.50;86.77;102968.28;5248453;28;19920;-71
2023/02/28 02:25:03;;;;;;;8.10;5.57;;;;;;;1.33;87.61;102963.34;5244433;28;20032;-70
2023/02/28 02:28:21;;;;;;;6.97;4.78;;;;;;;1.56;86.75;102962.19;5245779;28;20036;-71
2023/02/28 02:31:14;;;;;;;8.68;5.75;;;;;;;1.40;87.87;102967.56;5208567;28;20041;-70
2023/02/28 02:34:22;;;;;;;8.38;5.35;;;;;;;1.44;88.31;102965.78;5250359;28;20028;-71
2023/02/28 02:37:04;;;;;;;5.80;4.72;;;;;;;1.26;88.90;102964.28;5247772;28;20029;-70
2023/02/28 02:40:03;;;;;;;7.13;5.67;;;;;;;1.32;88.97;102946.09;5243481;28;20029;-70
2023/02/28 02:42:58;;;;;;;8.40;5.78;;;;;;;1.24;88.58;102962.56;5245461;28;20170;-70
2023/02/28 02:45:39;;;;;;;9.27;5.72;;;;;;;1.29;89.50;102965.94;5247617;28;20048;-71
2023/02/28 02:48:15;;;;;;;6.20;5.13;;;;;;;1.18;89.68;102959.19;5245437;28;20581;-70
2023/02/28 02:50:51;;;;;;;8.10;5.20;;;;;;;1.13;90.67;102960.13;5244015;28;20417;-71
2023/02/28 02:53:29;;;;;;;8.80;6.18;;;;;;;1.17;91.66;102967.78;5241339;28;20036;-70
2023/02/28 02:56:03;;;;;;;8.90;5.75;;;;;;;1.19;91.48;102973.81;5226599;28;20047;-73
2023/02/28 02:58:43;;;;;;;7.82;5.50;;;;;;;1.32;92.35;102971.06;5243906;28;20033;-70
2023/02/28 03:01:29;;;;;;;7.97;5.97;;;;;;;1.44;92.55;102978.69;5243635;28;20026;-71
2023/02/28 03:04:04;;;;;;;10.85;5.60;;;;;;;1.40;91.63;102966.66;5244749;28;20025;-70
2023/02/28 03:06:35;;;;;;;8.15;5.32;;;;;;;1.31;92.62;102956.47;5246488;28;20342;-71
2023/02/28 03:09:07;;;;;;;8.23;5.63;;;;;;;1.40;91.36;102956.34;5245007;28;20030;-71
2023/02/28 03:11:40;;;;;;;7.43;5.43;;;;;;;1.44;91.65;102955.47;5243568;28;20082;-72
2023/02/28 03:14:39;;;;;;;8.63;5.60;;;;;;;1.61;91.30;102961.25;5243514;28;20115;-71
2023/02/28 03:17:29;;;;;;;9.20;5.68;;;;;;;1.51;89.95;102959.63;5246059;28;20397;-72
2023/02/28 03:20:15;;;;;;;6.55;5.50;;;;;;;1.59;89.58;102944.91;5243926;28;20529;-71
2023/02/28 03:22:59;;;;;;;8.10;5.43;;;;;;;1.68;90.56;102964.59;5245143;28;20025;-70
2023/02/28 03:25:55;;;;;;;9.07;5.05;;;;;;;1.74;89.44;102961.91;5242669;28;20473;-71
2023/02/28 03:28:56;;;;;;;10.45;5.35;;;;;;;1.75;88.29;102955.91;5246272;28;20555;-71
2023/02/28 03:31:44;;;;;;;7.20;5.30;;;;;;;1.84;88.85;102947.16;5241384;28;20041;-71
2023/02/28 03:34:23;;;;;;;8.00;5.25;;;;;;;1.75;88.44;102955.03;5244531;28;20075;-71
2023/02/28 03:37:04;;;;;;;9.15;6.25;;;;;;;1.81;90.12;102965.28;5243887;28;20020;-71
2023/02/28 03:39:56;;;;;;;7.38;5.47;;;;;;;1.89;88.85;102960.84;5246099;28;20037;-71
2023/02/28 03:42:30;;;;;;;9.15;5.65;;;;;;;1.68;88.67;102960.28;5228565;28;20044;-71
2023/02/28 03:45:25;;;;;;;8.30;4.82;;;;;;;1.91;88.36;102959.09;5247609;28;20016;-71
2023/02/28 03:48:05;;;;;;;7.82;5.22;;;;;;;1.84;89.11;102958.34;5224616;28;20040;-71
2023/02/28 03:50:40;;;;;;;8.45;5.05;;;;;;;1.79;86.95;102961.88;5222656;28;20395;-73
2023/02/28 03:53:17;;;;;;;7.40;5.78;;;;;;;1.85;89.46;102962.63;5225446;28;20467;-71
2023/02/28 03:55:53;;;;;;;9.95;5.38;;;;;;;1.85;87.18;102969.53;5220762;28;20395;-71
2023/02/28 03:58:37;;;;;;;8.30;5.40;;;;;;;1.92;87.70;102963.41;5227842;28;20034;-72
2023/02/28 04:01:14;;;;;;;6.38;4.93;;;;;;;1.91;86.66;102959.97;5225096;28;20033;-71
2023/02/28 04:03:46;;;;;;;5.72;4.57;;;;;;;1.94;85.86;102962.50;5223360;28;20398;-71
2023/02/28 04:06:20;;;;;;;9.20;4.95;;;;;;;2.01;85.51;102963.28;5208375;28;20033;-71
2023/02/28 04:08:51;;;;;;;9.10;5.18;;;;;;;1.93;86.34;102967.69;5224977;28;20355;-70
2023/02/28 04:11:27;;;;;;;8.57;5.13;;;;;;;1.94;86.69;102966.81;5223954;28;20109;-71
2023/02/28 04:13:58;;;;;;;6.38;4.45;;;;;;;1.91;85.46;102957.38;5223879;28;20021;-71
2023/02/28 04:16:31;;;;;;;7.40;4.60;;;;;;;2.00;86.15;102964.13;5221083;28;20030;-71
2023/02/28 04:19:05;;;;;;;8.07;5.18;;;;;;;2.03;86.79;102955.47;5224158;28;20029;-71
2023/02/28 04:21:39;;;;;;;6.10;4.68;;;;;;;2.05;85.66;102964.94;5224585;28;20419;-71
2023/02/28 04:24:14;;;;;;;6.93;4.65;;;;;;;2.02;85.08;102956.38;5226934;28;20081;-71
2023/02/28 04:26:47;;;;;;;6.25;4.75;;;;;;;2.04;84.86;102968.38;5226760;28;20022;-72
2023/02/28 04:29:22;;;;;;;9.00;5.38;;;;;;;2.09;85.88;102974.34;5227216;28;20561;-70
2023/02/28 04:31:55;;;;;;;6.70;4.82;;;;;;;2.05;88.02;102975.28;5206285;28;20033;-71
2023/02/28 04:34:28;;;;;;;8.77;5.20;;;;;;;2.10;86.84;102981.22;5221650;28;20086;-71
2023/02/28 04:37:00;;;;;;;7.43;4.85;;;;;;;2.13;85.93;102983.78;5226397;28;20030;-71
2023/02/28 04:39:35;;;;;;;7.32;4.68;;;;;;;2.17;85.27;102977.66;5223335;28;20091;-71
2023/02/28 04:42:07;;;;;;;7.65;4.70;;;;;;;2.12;84.22;102978.59;5223202;28;20435;-71
2023/02/28 04:44:38;;;;;;;8.20;5.45;;;;;;;2.15;84.89;102976.81;5224539;28;20111;-71
2023/02/28 04:47:10;;;;;;;10.00;5.20;;;;;;;2.12;84.23;102969.13;5239212;28;20056;-71
2023/02/28 04:49:41;;;;;;;7.57;4.43;;;;;;;2.17;84.96;102985.44;5243148;28;20025;-71
2023/02/28 04:52:13;;;;;;;9.70;5.28;;;;;;;2.13;84.66;102978.59;5245010;28;20583;-71
2023/02/28 04:54:44;;;;;;;6.03;4.60;;;;;;;2.22;85.36;102987.09;5245532;28;20390;-72
2023/02/28 04:57:16;;;;;;;8.10;5.53;;;;;;;2.22;85.17;102987.09;5245719;28;20030;-71
2023/02/28 04:59:47;;;;;;;8.75;5.07;;;;;;;2.26;85.52;102984.41;5244222;28;20382;-70
2023/02/28 05:02:20;;;;;;;7.57;5.07;;;;;;;2.24;85.20;102982.75;5245262;28;20108;-71
2023/02/28 05:04:51;;;;;;;6.40;4.55;;;;;;;2.28;85.31;102987.00;5249037;28;20016;-71
2023/02/28 05:07:22;;;;;;;6.78;4.75;;;;;;;2.29;84.80;102981.78;5246032;28;20082;-70
2023/02/28 05:09:53;;;;;;;7.32;5.18;;;;;;;2.30;84.72;102986.06;5249996;28;20051;-71
2023/02/28 05:12:24;;;;;;;6.20;4.50;;;;;;;2.25;83.58;102972.38;5249054;28;20048;-72
2023/02/28 05:14:56;;;;;;;6.30;4.75;;;;;;;2.27;85.20;102980.09;5245321;28;20056;-70
2023/02/28 05:17:28;;;;;;;5.68;4.40;;;;;;;2.31;85.91;102989.50;5247782;28;20102;-72
2023/02/28 05:19:59;;;;;;;6.13;4.50;;;;;;;2.29;84.16;102983.53;5247759;28;20083;-71
2023/02/28 05:22:30;;;;;;;5.95;3.92;;;;;;;2.33;84.08;102983.44;5227671;28;20136;-70
2023/02/28 05:25:01;;;;;;;6.20;3.88;;;;;;;2.32;83.93;102992.09;5245486;28;20080;-71
2023/02/28 05:27:33;;;;;;;8.90;4.57;;;;;;;2.30;84.11;102998.16;5247225;28;20052;-71
2023/02/28 05:30:10;;;;;;;6.57;4.35;;;;;;;2.32;84.13;102999.84;5248799;28;20022;-71
2023/02/28 05:32:44;;;;;;;9.88;4.60;;;;;;;2.30;84.13;102995.56;5246554;28;20036;-71
2023/02/28 05:35:16;;;;;;;8.32;4.10;;;;;;;2.28;83.87;102984.41;5248862;28;20135;-71
2023/02/28 05:37:47;;;;;;;9.88;4.93;;;;;;;2.31;83.78;102998.16;5249583;28;20108;-71
2023/02/28 05:40:20;;;;;;;7.38;4.50;;;;;;;2.36;85.13;103001.50;5241099;28;20802;-71
2023/02/28 05:42:51;;;;;;;10.02;4.50;;;;;;;2.36;83.60;102992.91;5245111;28;20029;-71
2023/02/28 05:45:22;;;;;;;7.25;4.60;;;;;;;2.41;83.66;102993.66;5246354;28;20025;-71
2023/02/28 05:47:55;;;;;;;7.32;4.30;;;;;;;2.33;83.74;102991.22;5247063;28;20075;-71
2023/02/28 05:50:26;;;;;;;7.17;4.53;;;;;;;2.37;84.96;102992.88;5248726;28;20417;-71
2023/02/28 05:52:57;;;;;;;6.50;4.22;;;;;;;2.31;83.73;103000.75;5247812;28;20205;-71
2023/02/28 05:55:29;;;;;;;5.95;3.65;;;;;;;2.28;84.28;102997.34;5244800;28;20120;-71
2023/02/28 05:58:00;;;;;;;7.28;4.07;;;;;;;2.29;85.39;102999.91;5243755;28;20025;-71
2023/02/28 06:00:31;;;;;;;7.65;5.13;;;;;;;2.26;83.51;102996.50;5248430;28;20529;-71
2023/02/28 06:03:03;;;;;;;6.50;4.32;;;;;;;2.26;82.47;102993.91;5247346;28;20053;-73
2023/02/28 06:05:34;;;;;;;15.50;5.28;;;;;;;2.26;83.42;102996.50;5246402;28;20020;-71
2023/02/28 06:08:07;;;;;;;12.98;5.30;;;;;;;2.25;83.64;102999.97;5246824;28;20508;-71
2023/02/28 06:10:38;;;;;;;9.13;5.38;;;;;;;2.26;84.02;103004.25;5245940;28;20043;-71
2023/02/28 06:13:09;;;;;;;13.02;4.75;;;;;;;2.26;85.97;103002.53;5245426;28;20033;-71
2023/02/28 06:15:41;;;;;;;8.60;4.50;;;;;;;2.29;83.45;103002.47;5244162;28;20561;-71
2023/02/28 06:18:12;;;;;;;5.20;3.90;;;;;;;2.28;83.48;103010.28;5246215;28;20124;-72
2023/02/28 06:20:44;;;;;;;12.73;4.30;;;;;;;2.24;83.38;103016.38;5246195;28;20022;-70
2023/02/28 06:23:15;;;;;;;9.82;4.57;;;;;;;2.25;82.96;103013.75;5245021;28;20027;-70
2023/02/28 06:25:47;;;;;;;7.47;4.47;;;;;;;2.26;83.30;103017.19;5245762;28;20439;-70
2023/02/28 06:28:19;;;;;;;7.25;4.22;;;;;;;2.24;84.40;103011.22;5247447;28;20024;-69
2023/02/28 06:30:50;;;;;;;8.68;4.50;;;;;;;2.31;82.57;103015.38;5246971;28;20032;-70
2023/02/28 06:33:22;;;;;;;7.07;4.32;;;;;;;2.31;83.60;103010.22;5246615;28;20041;-70
2023/02/28 06:35:53;;;;;;;8.07;4.70;;;;;;;2.34;82.91;103016.19;5243818;28;20865;-70
2023/02/28 06:38:24;;;;;;;9.65;4.88;;;;;;;2.32;84.21;103024.88;5241844;28;20025;-71
2023/02/28 06:40:58;;;;;;;7.43;4.40;;;;;;;2.36;83.86;103026.53;5237827;28;20033;-70
2023/02/28 06:43:30;;;;;;;;;;;;;;;2.92;81.38;103017.81;5242454;28;20021;-70
2023/02/28 06:46:06;;;;;;;7.32;4.30;;;;;;;2.40;84.00;103002.31;5253631;23;20310;-75
2023/02/28 06:48:37;;;;;;;6.18;4.88;;;;;;;2.35;82.58;103015.34;5245292;28;20059;-75
2023/02/28 06:51:15;;;;;;;8.98;4.57;;;;;;;2.46;83.91;103027.22;5245167;28;20029;-75
2023/02/28 06:53:46;;;;;;;8.35;4.97;;;;;;;2.42;82.56;103027.28;5247728;28;20012;-75
2023/02/28 06:56:19;;;;;;;6.18;4.45;;;;;;;2.42;83.10;103026.41;5243789;28;20044;-75
2023/02/28 06:58:52;;;;;;;6.97;4.38;;;;;;;2.35;83.17;103022.22;5245750;28;20027;-76
2023/02/28 07:01:24;;;;;;;6.68;4.43;;;;;;;2.39;82.61;103026.50;5242600;28;20025;-75
2023/02/28 07:03:55;;;;;;;7.30;4.47;;;;;;;2.37;82.66;103023.91;5246048;28;20016;-76
2023/02/28 07:06:27;;;;;;;9.00;4.60;;;;;;;2.38;81.98;103033.38;5226439;28;20032;-76
2023/02/28 07:08:59;;;;;;;5.32;4.30;;;;;;;2.30;82.29;103031.78;5244214;28;20021;-76
2023/02/28 07:11:30;;;;;;;6.32;4.65;;;;;;;2.33;84.03;103036.91;5247510;28;20025;-75
2023/02/28 07:14:01;;;;;;;6.75;4.50;;;;;;;2.38;81.76;103035.94;5243553;28;20028;-76
2023/02/28 07:16:33;;;;;;;7.05;4.30;;;;;;;2.38;80.57;103028.19;5228218;28;20041;-75
2023/02/28 07:19:04;;;;;;;6.93;3.80;;;;;;;2.32;83.02;103030.03;5242892;28;20040;-75
2023/02/28 07:21:35;;;;;;;7.10;4.40;;;;;;;2.32;82.24;103045.56;5248035;28;20036;-77
2023/02/28 07:24:07;;;;;;;9.20;4.47;;;;;;;2.38;80.81;103041.13;5242979;28;20116;-75
2023/02/28 07:26:38;;;;;;;6.20;4.25;;;;;;;2.36;79.81;103040.31;5245116;28;20040;-75
2023/02/28 07:29:09;;;;;;;6.78;4.57;;;;;;;2.34;80.56;103047.22;5241350;28;20116;-76
2023/02/28 07:31:41;;;;;;;9.18;5.18;;;;;;;2.43;79.23;103043.66;5243903;28;20044;-75
2023/02/28 07:34:13;;;;;;;7.78;4.30;;;;;;;2.44;80.83;103047.97;5242826;28;20057;-75
2023/02/28 07:36:44;;;;;;;7.25;4.35;;;;;;;2.32;81.89;103030.03;5239460;28;20052;-76
2023/02/28 07:39:16;;;;;;;7.90;4.18;;;;;;;2.49;79.38;103056.50;5244621;28;20021;-75
2023/02/28 07:41:47;;;;;;;11.52;4.28;;;;;;;2.50;79.72;103052.16;5243491;28;20034;-77
2023/02/28 07:44:18;;;;;;;7.05;4.00;;;;;;;2.54;80.31;103049.53;5228492;28;20052;-76
2023/02/28 07:46:50;;;;;;;7.32;4.82;;;;;;;2.61;79.91;103061.50;5245224;28;20509;-75
2023/02/28 07:49:21;;;;;;;6.03;4.20;;;;;;;2.56;78.90;103047.75;5246572;28;20059;-76
2023/02/28 07:51:52;;;;;;;7.22;4.03;;;;;;;2.64;78.87;103066.59;5239040;28;20079;-75
2023/02/28 07:54:23;;;;;;;10.38;5.07;;;;;;;2.66;78.99;103054.50;5243496;28;20371;-76
2023/02/28 07:56:55;;;;;;;7.72;4.13;;;;;;;2.66;77.22;103045.88;5245036;28;20433;-76
2023/02/28 07:59:26;;;;;;;7.07;4.40;;;;;;;2.81;78.58;103060.31;5249636;28;20521;-75
2023/02/28 08:01:58;;;;;;;5.03;3.63;;;;;;;2.83;74.04;103063.72;5244145;28;20143;-76
2023/02/28 08:04:32;;;;;;;6.13;3.83;;;;;;;2.98;74.64;103053.09;5242133;28;20081;-75
2023/02/28 08:07:03;;;;;;;6.60;3.50;;;;;;;3.06;73.95;103063.31;5228151;28;20025;-76
2023/02/28 08:09:35;;;;;;;4.93;3.40;;;;;;;3.09;70.49;103050.31;5245130;28;20044;-76
2023/02/28 08:12:07;;;;;;;6.57;4.53;;;;;;;3.33;69.79;103065.44;5229797;28;20489;-76
2023/02/28 08:14:39;;;;;;;4.50;3.50;;;;;;;3.44;70.45;103067.78;5244879;28;20022;-76
2023/02/28 08:17:11;;;;;;;4.95;2.60;;;;;;;3.53;64.71;103066.78;5241825;28;20038;-76
2023/02/28 08:19:45;;;;;;;4.57;2.33;;;;;;;3.62;59.55;103069.19;5230358;28;20480;-76
2023/02/28 08:22:17;;;;;;;3.75;2.63;;;;;;;3.57;59.02;103052.88;5227090;28;20232;-75
2023/02/28 08:24:49;;;;;;;3.70;2.20;;;;;;;3.66;56.45;103069.06;5245242;28;20389;-77
2023/02/28 08:27:20;;;;;;;4.20;2.08;;;;;;;3.65;56.60;103059.59;5242665;28;20165;-76
2023/02/28 08:29:51;;;;;;;4.30;2.25;;;;;;;3.65;54.69;103043.19;5242324;28;20484;-77
2023/02/28 08:32:22;;;;;;;4.28;1.80;;;;;;;3.83;54.17;103068.75;5245562;28;20494;-76
2023/02/28 08:34:54;;;;;;;3.03;1.90;;;;;;;3.77;54.96;103063.69;5243259;28;20025;-76
2023/02/28 08:37:25;;;;;;;2.90;1.50;;;;;;;3.71;52.08;103058.59;5244491;28;20038;-77
2023/02/28 08:39:56;;;;;;;3.67;1.83;;;;;;;3.69;52.40;103055.22;5245419;28;20056;-76
2023/02/28 08:42:28;;;;;;;3.38;1.80;;;;;;;3.72;52.03;103044.78;5249962;28;20177;-75
2023/02/28 08:44:59;;;;;;;3.50;1.90;;;;;;;3.85;52.87;103058.34;5247961;28;20025;-77
2023/02/28 08:47:30;;;;;;;2.88;1.73;;;;;;;3.71;51.00;103053.41;5247855;28;20068;-76
2023/02/28 08:50:03;;;;;;;3.83;2.00;;;;;;;3.83;52.31;103049.75;5231417;28;20108;-75
2023/02/28 08:52:34;;;;;;;3.72;2.05;;;;;;;3.88;51.51;103059.13;5244248;28;20083;-76
2023/02/28 08:55:06;;;;;;;3.55;1.80;;;;;;;3.78;51.06;103046.38;5247468;28;20099;-75
2023/02/28 08:57:37;;;;;;;3.53;1.40;;;;;;;3.84;48.19;103059.22;5246262;28;20037;-76
2023/02/28 09:00:10;;;;;;;3.53;1.77;;;;;;;3.93;49.64;103055.56;5246346;28;20080;-77
2023/02/28 09:02:42;;;;;;;3.10;1.57;;;;;;;3.95;47.17;103062.44;5246487;28;20749;-75
2023/02/28 09:05:13;;;;;;;4.78;1.65;;;;;;;4.02;47.58;103061.44;5250647;28;20028;-75
2023/02/28 09:07:45;;;;;;;3.28;1.73;;;;;;;4.07;46.57;103059.56;5252238;28;20655;-75
2023/02/28 09:10:16;;;;;;;2.63;1.35;;;;;;;4.02;45.34;103066.63;5231139;28;20275;-77
2023/02/28 09:12:47;;;;;;;2.67;1.60;;;;;;;3.97;46.07;103063.25;5247816;28;20420;-76
2023/02/28 09:15:19;;;;;;;2.70;1.60;;;;;;;4.06;44.81;103072.59;5228102;28;20510;-76
2023/02/28 09:17:50;;;;;;;2.97;1.48;;;;;;;4.03;44.63;103064.88;5248701;28;20048;-77
2023/02/28 09:20:21;;;;;;;5.93;1.58;;;;;;;4.11;43.10;103056.03;5247310;28;20103;-76
2023/02/28 09:22:53;;;;;;;3.15;1.45;;;;;;;4.09;42.56;103052.63;5249148;28;20021;-76
2023/02/28 09:25:24;;;;;;;3.38;1.63;;;;;;;4.23;42.39;103054.91;5247321;28;20025;-77
2023/02/28 09:27:55;;;;;;;2.20;1.30;;;;;;;4.20;43.94;103051.50;5242423;28;20024;-76
2023/02/28 09:30:27;;;;;;;3.92;1.52;;;;;;;4.22;42.46;103053.19;5248453;28;20045;-76
2023/02/28 09:32:58;;;;;;;4.10;1.60;;;;;;;4.23;40.99;103059.22;5249998;28;20017;-77
2023/02/28 09:35:30;;;;;;;4.10;1.40;;;;;;;4.22;41.24;103048.00;5247430;28;20408;-76
2023/02/28 09:38:02;;;;;;;2.80;1.50;;;;;;;4.31;40.90;103052.97;5249993;28;20102;-76
2023/02/28 09:40:38;;;;;;;4.90;1.50;;;;;;;4.55;41.07;103059.34;5246904;28;20025;-76
2023/02/28 09:43:14;;;;;;;3.63;1.50;;;;;;;4.56;41.03;103062.78;5245968;28;20021;-76
2023/02/28 09:45:58;;;;;;;2.90;1.40;;;;;;;4.66;38.75;103066.88;5245843;28;20088;-76
2023/02/28 09:48:36;;;;;;;5.70;1.42;;;;;;;4.83;40.70;103061.25;5250555;28;20517;-76
2023/02/28 09:51:26;;;;;;;2.33;1.10;;;;;;;5.06;39.33;103056.31;5247481;28;20521;-76
2023/02/28 09:53:57;;;;;;;2.38;1.15;;;;;;;4.96;39.36;103056.59;5245919;28;20053;-76
2023/02/28 09:56:38;;;;;;;2.47;1.13;;;;;;;4.93;38.31;103013.38;5250050;28;20060;-76
2023/02/28 09:59:12;;;;;;;3.17;1.02;;;;;;;5.04;38.19;103059.88;5250501;28;20033;-76
2023/02/28 10:02:00;;;;;;;1.90;1.20;;;;;;;5.18;38.14;103052.53;5245169;28;20045;-76
2023/02/28 10:04:55;;;;;;;3.42;1.10;;;;;;;5.26;37.47;103049.72;5249147;28;20266;-76
2023/02/28 10:08:01;;;;;;;2.25;1.20;;;;;;;5.40;38.59;103057.16;5250636;28;20036;-76
2023/02/28 10:10:38;;;;;;;4.78;1.38;;;;;;;5.22;37.35;103043.75;5247656;28;20053;-77
2023/02/28 10:13:23;;;;;;;1.83;0.98;;;;;;;5.45;35.98;103047.47;5246152;28;20025;-75
2023/02/28 10:16:01;;;;;;;1.73;1.00;;;;;;;5.41;37.29;103044.13;5245079;28;20033;-76
2023/02/28 10:18:45;;;;;;;2.53;1.63;;;;;;;5.59;36.55;103030.59;5245083;28;20512;-76
2023/02/28 10:21:27;;;;;;;2.13;1.15;;;;;;;5.49;37.27;103041.31;5250700;28;20390;-75
2023/02/28 10:24:22;;;;;;;2.88;1.20;;;;;;;5.54;36.61;103039.44;5250533;28;20096;-77
2023/02/28 10:27:00;;;;;;;2.05;1.08;;;;;;;5.59;36.21;103029.75;5241293;28;20080;-76
2023/02/28 10:29:33;;;;;;;2.08;1.17;;;;;;;5.66;35.95;103038.25;5243525;28;20497;-76
2023/02/28 10:32:04;;;;;;;4.15;1.30;;;;;;;5.58;35.84;103033.25;5226898;28;20124;-76
2023/02/28 10:34:36;;;;;;;2.30;1.15;;;;;;;5.64;35.10;103022.66;5249664;28;20112;-76
2023/02/28 10:37:07;;;;;;;2.10;1.10;;;;;;;5.85;36.14;103023.78;5224835;28;20064;-76
2023/02/28 10:39:45;;;;;;;1.90;1.10;;;;;;;5.91;35.37;103022.75;5246924;28;20029;-76
2023/02/28 10:42:29;;;;;;;5.63;1.35;;;;;;;5.99;36.69;103018.22;5244820;28;21843;-76
2023/02/28 10:45:07;;;;;;;3.15;1.30;;;;;;;6.18;36.02;103026.31;5228686;28;20025;-76
2023/02/28 10:47:55;;;;;;;2.15;1.20;;;;;;;6.00;35.51;103010.34;5246560;28;20029;-77
2023/02/28 10:50:39;;;;;;;2.60;1.10;;;;;;;6.25;35.49;103022.56;5246937;28;20155;-76
2023/02/28 10:53:10;;;;;;;2.80;1.40;;;;;;;6.19;35.33;103026.25;5246784;28;20034;-79
2023/02/28 10:55:42;;;;;;;2.20;1.20;;;;;;;6.02;35.75;103025.91;5245328;28;20033;-76
2023/02/28 10:58:24;;;;;;;2.20;1.20;;;;;;;6.02;35.33;103020.69;5244714;28;20709;-77
2023/02/28 11:00:56;;;;;;;1.90;1.20;;;;;;;6.11;35.67;103023.03;5241560;28;20056;-76
2023/02/28 11:03:32;;;;;;;2.70;1.20;;;;;;;6.14;36.06;103016.84;5245892;28;20032;-76
2023/02/28 11:06:13;;;;;;;2.50;0.90;;;;;;;6.31;35.94;103017.19;5246186;28;20067;-76
2023/02/28 11:09:13;;;;;;;2.45;1.20;;;;;;;6.51;36.44;103000.91;5241365;28;20052;-77
2023/02/28 11:11:47;;;;;;;3.70;1.40;;;;;;;6.50;35.52;103013.09;5244883;28;20041;-75
2023/02/28 11:14:25;;;;;;;2.70;1.23;;;;;;;6.53;35.32;103015.59;5225080;28;20053;-76
2023/02/28 11:17:18;;;;;;;2.83;1.45;;;;;;;6.65;35.61;103005.66;5243318;28;20060;-77
2023/02/28 11:19:54;;;;;;;3.07;1.33;;;;;;;6.54;35.61;103006.03;5246351;28;20033;-76
2023/02/28 11:22:29;;;;;;;2.83;1.40;;;;;;;6.53;35.95;103007.78;5244121;28;20214;-76
2023/02/28 11:25:06;;;;;;;4.28;1.35;;;;;;;6.55;36.74;102992.97;5244642;28;20022;-76
2023/02/28 11:27:46;;;;;;;3.08;1.25;;;;;;;6.71;36.25;102993.28;5239921;28;20043;-76
2023/02/28 11:30:33;;;;;;;2.75;1.40;;;;;;;6.88;36.68;102995.31;5244873;28;20085;-76
2023/02/28 11:33:42;;;;;;;3.65;1.30;;;;;;;7.15;36.01;102992.63;5244165;28;20026;-76
2023/02/28 11:36:16;;;;;;;3.45;1.15;;;;;;;7.03;35.29;102993.91;5201878;28;20041;-76
2023/02/28 11:38:51;;;;;;;1.95;1.20;;;;;;;7.03;35.62;102989.56;5243901;28;20026;-77
2023/02/28 11:41:31;;;;;;;2.78;1.20;;;;;;;7.00;35.30;102989.66;5228688;28;20120;-78
2023/02/28 11:44:13;;;;;;;1.83;1.13;;;;;;;7.15;36.69;102969.16;5245975;28;20013;-76
2023/02/28 11:46:51;;;;;;;4.18;1.52;;;;;;;7.17;36.13;102983.84;5240533;28;20057;-77
2023/02/28 11:49:47;;;;;;;2.05;1.40;;;;;;;7.17;35.74;102980.41;5242083;28;20047;-76
2023/02/28 11:52:21;;;;;;;2.00;1.10;;;;;;;7.03;34.92;102976.53;5235152;28;20049;-76
2023/02/28 11:55:27;;;;;;;3.72;1.10;;;;;;;7.32;36.42;102978.09;5247280;28;20413;-77
2023/02/28 11:58:33;;;;;;;2.45;1.48;;;;;;;7.26;35.46;102973.06;5245393;28;20033;-76
2023/02/28 12:01:16;;;;;;;2.83;1.70;;;;;;;7.13;35.65;102955.34;5246348;28;20032;-76
2023/02/28 12:03:56;;;;;;;3.65;1.60;;;;;;;7.45;35.65;102967.19;5243866;28;20029;-77
2023/02/28 12:06:36;;;;;;;4.05;1.25;;;;;;;7.27;36.69;102960.88;5225390;28;20065;-76
2023/02/28 12:09:25;;;;;;;2.42;1.33;;;;;;;7.40;35.64;102964.75;5243080;28;20499;-77
2023/02/28 12:12:35;;;;;;;6.03;1.70;;;;;;;7.69;36.00;102965.38;5232864;28;20057;-78
2023/02/28 12:15:29;;;;;;;2.47;1.38;;;;;;;7.62;35.54;102951.75;5183840;28;20119;-77